Time;durP1;ratioP1;P1;durP2;ratioP2;P2;SDS_P1;SDS_P2;PMS_P1;PMS_P2;Temp;Humidity;BMP_temperature;BMP_pressure;BME280_temperature;BME280_humidity;BME280_pressure;Samples;Min_cycle;Max_cycle;Signal;HPM_P1;HPM_P2
2021/06/13 00:01:35;;;;;;;5.97;2.35;;;16.60;62.70;;;;;;3617562;39;20031;-74
2021/06/13 00:04:01;;;;;;;5.97;2.03;;;16.60;62.80;;;;;;3615557;39;20023;-74
2021/06/13 00:06:27;;;;;;;5.30;2.40;;;16.60;62.90;;;;;;3613535;39;20038;-74
2021/06/13 00:08:54;;;;;;;6.40;2.45;;;16.50;63.00;;;;;;3618766;39;20145;-74
2021/06/13 00:11:21;;;;;;;4.35;2.03;;;16.50;63.30;;;;;;3614777;39;20038;-74
2021/06/13 00:13:47;;;;;;;7.65;2.58;;;16.50;63.70;;;;;;3618068;39;20391;-74
2021/06/13 00:16:13;;;;;;;6.20;2.58;;;16.40;64.00;;;;;;3619991;39;20022;-73
2021/06/13 00:18:39;;;;;;;9.63;2.50;;;16.40;64.10;;;;;;3614596;39;20075;-74
2021/06/13 00:21:04;;;;;;;6.25;2.65;;;16.40;64.30;;;;;;3615033;39;20046;-74
2021/06/13 00:23:31;;;;;;;6.18;1.90;;;16.40;64.60;;;;;;3618591;39;20054;-74
2021/06/13 00:25:56;;;;;;;4.70;2.25;;;16.40;65.60;;;;;;3615591;39;20443;-74
2021/06/13 00:28:22;;;;;;;5.75;2.30;;;16.30;65.40;;;;;;3615775;39;20034;-74
2021/06/13 00:30:48;;;;;;;7.55;2.75;;;16.20;64.90;;;;;;3613236;39;20034;-74
2021/06/13 00:33:13;;;;;;;5.22;2.33;;;16.20;65.00;;;;;;3616358;39;20035;-74
2021/06/13 00:35:39;;;;;;;7.78;2.35;;;16.20;65.00;;;;;;3612717;39;20063;-75
2021/06/13 00:38:06;;;;;;;9.38;2.53;;;16.10;64.90;;;;;;3614711;39;20023;-74
2021/06/13 00:40:33;;;;;;;9.32;2.53;;;16.00;65.00;;;;;;3609363;39;20058;-75
2021/06/13 00:42:59;;;;;;;6.25;2.25;;;16.00;65.00;;;;;;3611992;39;20030;-74
2021/06/13 00:45:27;;;;;;;5.70;2.40;;;15.90;65.10;;;;;;3615541;39;20075;-74
2021/06/13 00:47:54;;;;;;;6.03;2.58;;;15.90;65.00;;;;;;3616350;39;20034;-74
2021/06/13 00:50:50;;;;;;;8.25;2.85;;;15.90;64.90;;;;;;3617934;39;20039;-74
2021/06/13 00:53:17;;;;;;;3.70;2.20;;;15.80;64.70;;;;;;3613645;39;20070;-75
2021/06/13 00:55:52;;;;;;;5.25;2.28;;;15.80;64.60;;;;;;3615914;39;20027;-74
2021/06/13 00:58:18;;;;;;;10.13;2.78;;;15.80;64.30;;;;;;3619081;39;20451;-74
2021/06/13 01:00:44;;;;;;;7.30;2.40;;;15.80;63.50;;;;;;3615524;39;20158;-74
2021/06/13 01:03:11;;;;;;;5.40;1.80;;;15.70;62.80;;;;;;3615468;39;20031;-75
2021/06/13 01:05:37;;;;;;;8.52;2.38;;;15.70;63.00;;;;;;3617945;39;20030;-74
2021/06/13 01:08:41;;;;;;;3.95;1.75;;;15.60;62.70;;;;;;3613563;39;20034;-75
2021/06/13 01:11:24;;;;;;;8.43;2.50;;;15.60;62.70;;;;;;3613587;39;20030;-74
2021/06/13 01:14:16;;;;;;;8.40;2.22;;;15.50;62.90;;;;;;3611031;39;20035;-74
2021/06/13 01:17:06;;;;;;;4.28;1.90;;;15.50;63.10;;;;;;3610375;39;20079;-74
2021/06/13 01:19:50;;;;;;;8.75;2.42;;;15.40;63.10;;;;;;3614976;39;20037;-75
2021/06/13 01:22:26;;;;;;;6.18;2.05;;;15.40;63.30;;;;;;3609257;39;20775;-75
2021/06/13 01:25:16;;;;;;;9.10;2.65;;;15.30;63.10;;;;;;3615575;39;20039;-74
2021/06/13 01:27:54;;;;;;;7.47;1.98;;;15.30;63.00;;;;;;3614457;39;20027;-75
2021/06/13 01:30:23;;;;;;;8.40;2.28;;;15.20;62.80;;;;;;3612333;39;20074;-75
2021/06/13 01:32:49;;;;;;;4.13;2.15;;;15.20;62.90;;;;;;3609300;39;20027;-74
2021/06/13 01:35:18;;;;;;;6.93;2.40;;;15.20;63.10;;;;;;3611998;39;20047;-74
2021/06/13 01:37:53;;;;;;;7.72;2.30;;;15.10;63.20;;;;;;3614825;39;20027;-74
2021/06/13 01:40:23;;;;;;;6.03;2.03;;;15.10;63.10;;;;;;3605718;39;20052;-74
2021/06/13 01:42:53;;;;;;;12.30;2.72;;;15.10;63.60;;;;;;3617767;39;20032;-75
2021/06/13 01:45:22;;;;;;;4.65;2.28;;;15.10;63.50;;;;;;3615059;39;20231;-75
2021/06/13 01:47:51;;;;;;;5.00;2.25;;;15.10;63.40;;;;;;3615926;39;20392;-75
2021/06/13 01:50:21;;;;;;;5.30;2.45;;;15.00;63.40;;;;;;3614133;39;20404;-74
2021/06/13 01:52:49;;;;;;;7.43;2.97;;;15.00;63.70;;;;;;3611793;39;20043;-75
2021/06/13 01:55:19;;;;;;;5.68;2.13;;;15.00;63.90;;;;;;3617696;39;20035;-75
2021/06/13 01:57:46;;;;;;;6.07;2.08;;;15.00;64.10;;;;;;3614361;39;20039;-75
2021/06/13 02:00:22;;;;;;;5.18;2.38;;;15.00;64.40;;;;;;3611827;39;20031;-75
2021/06/13 02:02:55;;;;;;;10.93;2.60;;;14.90;64.70;;;;;;3614750;39;20035;-75
2021/06/13 02:05:33;;;;;;;9.57;2.60;;;14.90;65.10;;;;;;3611311;39;20074;-75
2021/06/13 02:08:00;;;;;;;15.10;2.78;;;14.80;65.50;;;;;;3612263;39;20501;-75
2021/06/13 02:10:27;;;;;;;6.57;2.22;;;14.80;65.60;;;;;;3613695;39;20042;-74
2021/06/13 02:12:55;;;;;;;7.15;2.10;;;14.80;65.70;;;;;;3616833;39;20055;-74
2021/06/13 02:15:24;;;;;;;6.43;2.35;;;14.70;65.90;;;;;;3607306;39;20028;-75
2021/06/13 02:17:58;;;;;;;4.07;2.27;;;14.70;66.10;;;;;;3614464;39;20053;-74
2021/06/13 02:20:30;;;;;;;9.50;2.72;;;14.70;66.20;;;;;;3616279;39;20391;-75
2021/06/13 02:22:58;;;;;;;7.45;2.92;;;14.70;66.40;;;;;;3615393;39;20564;-74
2021/06/13 02:25:24;;;;;;;5.40;2.55;;;14.70;66.60;;;;;;3618339;39;20031;-75
2021/06/13 02:27:52;;;;;;;4.95;2.03;;;14.60;66.70;;;;;;3610786;39;20039;-74
2021/06/13 02:30:20;;;;;;;8.57;2.80;;;14.60;67.10;;;;;;3614199;39;20038;-75
2021/06/13 02:32:48;;;;;;;8.05;3.08;;;14.60;67.60;;;;;;3610604;39;20401;-74
2021/06/13 02:35:18;;;;;;;6.15;2.42;;;14.50;68.00;;;;;;3612999;39;20401;-75
2021/06/13 02:37:49;;;;;;;7.57;2.92;;;14.50;68.10;;;;;;3611660;39;20023;-74
2021/06/13 02:40:24;;;;;;;5.75;1.98;;;14.50;68.30;;;;;;3615949;39;20034;-74
2021/06/13 02:42:51;;;;;;;12.40;3.40;;;14.50;68.50;;;;;;3612522;39;20046;-74
2021/06/13 02:45:21;;;;;;;7.97;2.38;;;14.40;68.80;;;;;;3611326;39;20042;-75
2021/06/13 02:47:51;;;;;;;9.00;2.65;;;14.40;68.80;;;;;;3616837;39;20748;-74
2021/06/13 02:50:21;;;;;;;6.47;2.80;;;14.40;68.70;;;;;;3611249;39;20091;-74
2021/06/13 02:52:55;;;;;;;12.65;3.00;;;14.40;68.70;;;;;;3612052;39;20519;-75
2021/06/13 02:55:24;;;;;;;6.60;2.63;;;14.40;68.60;;;;;;3615518;39;20042;-74
2021/06/13 02:58:19;;;;;;;8.57;2.38;;;14.40;68.40;;;;;;3618849;39;20027;-74
2021/06/13 03:00:47;;;;;;;7.35;2.92;;;14.40;68.50;;;;;;3612291;39;20039;-75
2021/06/13 03:03:18;;;;;;;7.18;2.60;;;14.50;67.90;;;;;;3616410;39;20552;-75
2021/06/13 03:05:45;;;;;;;11.65;3.15;;;14.50;67.70;;;;;;3612701;39;20035;-75
2021/06/13 03:08:13;;;;;;;6.30;2.63;;;14.40;67.90;;;;;;3611782;39;20052;-75
2021/06/13 03:10:40;;;;;;;12.63;2.83;;;14.40;68.30;;;;;;3615659;39;20034;-75
2021/06/13 03:13:06;;;;;;;5.57;2.75;;;14.40;68.30;;;;;;3613393;39;20035;-75
2021/06/13 03:15:33;;;;;;;8.48;2.55;;;14.40;67.90;;;;;;3615011;39;20079;-74
2021/06/13 03:18:00;;;;;;;9.00;3.35;;;14.40;67.90;;;;;;3615877;39;20795;-74
2021/06/13 03:20:27;;;;;;;9.40;2.90;;;14.40;68.00;;;;;;3615188;39;20023;-75
2021/06/13 03:22:56;;;;;;;11.88;2.90;;;14.30;68.10;;;;;;3613817;39;20035;-75
2021/06/13 03:25:23;;;;;;;8.40;2.88;;;14.30;69.10;;;;;;3612418;39;20023;-75
2021/06/13 03:27:50;;;;;;;6.28;2.83;;;14.30;69.00;;;;;;3615918;39;20023;-75
2021/06/13 03:30:22;;;;;;;7.78;2.58;;;14.30;68.30;;;;;;3610540;39;20705;-75
2021/06/13 03:32:53;;;;;;;8.40;2.65;;;14.30;68.30;;;;;;3613561;39;20050;-75
2021/06/13 03:35:20;;;;;;;9.07;2.75;;;14.20;68.30;;;;;;3616348;39;20035;-75
2021/06/13 03:37:46;;;;;;;8.68;2.53;;;14.20;68.30;;;;;;3617144;39;20119;-75
2021/06/13 03:40:14;;;;;;;5.55;2.17;;;14.30;68.20;;;;;;3610741;39;20039;-75
2021/06/13 03:42:40;;;;;;;5.60;2.40;;;14.30;68.20;;;;;;3614125;39;20024;-75
2021/06/13 03:45:07;;;;;;;7.70;2.30;;;14.30;68.00;;;;;;3617945;39;20050;-75
2021/06/13 03:47:33;;;;;;;7.72;2.22;;;14.40;68.00;;;;;;3620260;39;20027;-75
2021/06/13 03:50:00;;;;;;;8.93;2.30;;;14.40;67.80;;;;;;3615933;39;20034;-75
2021/06/13 03:52:27;;;;;;;7.68;2.50;;;14.50;68.00;;;;;;3616319;39;20031;-75
2021/06/13 03:54:54;;;;;;;6.95;2.17;;;14.60;67.80;;;;;;3612485;39;20026;-74
2021/06/13 03:57:21;;;;;;;9.45;2.80;;;14.60;67.70;;;;;;3620303;39;20530;-75
2021/06/13 03:59:49;;;;;;;8.35;2.47;;;14.70;67.50;;;;;;3614526;39;20023;-75
2021/06/13 04:02:16;;;;;;;8.40;2.95;;;14.70;67.30;;;;;;3615498;39;20035;-74
2021/06/13 04:04:51;;;;;;;7.43;2.75;;;14.80;67.10;;;;;;3611469;39;20054;-75
2021/06/13 04:07:18;;;;;;;7.53;2.35;;;14.90;67.00;;;;;;3615992;39;20135;-75
2021/06/13 04:09:44;;;;;;;5.72;2.33;;;14.90;66.80;;;;;;3614201;39;20035;-74
2021/06/13 04:12:15;;;;;;;6.10;2.85;;;14.90;66.80;;;;;;3616968;39;20018;-75
2021/06/13 04:14:44;;;;;;;7.35;2.38;;;14.90;66.80;;;;;;3615807;39;20042;-75
2021/06/13 04:17:16;;;;;;;5.75;2.35;;;14.90;66.90;;;;;;3616367;39;20412;-75
2021/06/13 04:19:43;;;;;;;7.88;2.30;;;14.90;67.60;;;;;;3617281;39;20311;-73
2021/06/13 04:22:12;;;;;;;7.45;2.50;;;14.90;67.00;;;;;;3611445;39;20027;-73
2021/06/13 04:24:41;;;;;;;8.05;2.50;;;15.00;67.20;;;;;;3607492;39;20114;-74
2021/06/13 04:27:09;;;;;;;7.50;2.83;;;15.00;67.10;;;;;;3615628;39;20392;-74
2021/06/13 04:29:35;;;;;;;7.68;2.70;;;15.00;67.30;;;;;;3610991;39;20502;-74
2021/06/13 04:32:02;;;;;;;6.72;2.63;;;15.00;67.40;;;;;;3612971;39;20031;-73
2021/06/13 04:34:28;;;;;;;6.22;2.63;;;15.10;67.40;;;;;;3617801;39;20031;-73
2021/06/13 04:36:53;;;;;;;13.63;3.67;;;15.10;67.20;;;;;;3614519;39;20578;-73
2021/06/13 04:39:19;;;;;;;10.25;3.25;;;15.20;67.00;;;;;;3611786;39;20019;-73
2021/06/13 04:41:44;;;;;;;7.10;2.05;;;15.30;66.80;;;;;;3615287;39;20401;-73
2021/06/13 04:44:10;;;;;;;11.52;3.55;;;15.30;66.90;;;;;;3615118;39;20062;-73
2021/06/13 04:46:36;;;;;;;9.13;3.58;;;15.40;66.50;;;;;;3618531;39;20035;-73
2021/06/13 04:49:02;;;;;;;7.45;2.33;;;15.50;66.00;;;;;;3615816;39;20111;-73
2021/06/13 04:51:28;;;;;;;9.65;2.72;;;15.50;65.90;;;;;;3613604;39;20119;-72
2021/06/13 04:53:57;;;;;;;5.90;2.75;;;15.50;65.70;;;;;;3617663;39;20370;-73
2021/06/13 04:57:09;;;;;;;9.65;2.67;;;15.60;65.80;;;;;;3614445;39;20038;-73
2021/06/13 04:59:34;;;;;;;8.43;2.75;;;15.60;65.20;;;;;;3581249;40;20040;-73
2021/06/13 05:02:00;;;;;;;7.97;2.92;;;15.50;65.40;;;;;;3609146;39;20023;-73
2021/06/13 05:04:27;;;;;;;9.13;3.00;;;15.50;65.40;;;;;;3611602;39;20047;-73
2021/06/13 05:06:52;;;;;;;6.88;2.85;;;15.60;65.30;;;;;;3614476;39;20107;-73
2021/06/13 05:09:18;;;;;;;11.30;3.58;;;15.60;65.60;;;;;;3614997;39;20034;-73
2021/06/13 05:11:44;;;;;;;13.43;3.15;;;15.60;65.20;;;;;;3611358;39;20123;-73
2021/06/13 05:14:10;;;;;;;9.30;2.83;;;15.60;65.20;;;;;;3611941;39;20028;-72
2021/06/13 05:16:38;;;;;;;10.25;3.03;;;15.60;65.40;;;;;;3614843;39;20031;-72
2021/06/13 05:19:03;;;;;;;12.90;2.50;;;15.60;65.60;;;;;;3615119;39;20174;-72
2021/06/13 05:21:29;;;;;;;13.40;3.30;;;15.60;65.60;;;;;;3620122;39;20035;-72
2021/06/13 05:23:55;;;;;;;6.90;2.55;;;15.60;65.50;;;;;;3618649;39;20119;-72
2021/06/13 05:26:20;;;;;;;9.40;2.80;;;15.60;65.20;;;;;;3614904;39;20026;-72
2021/06/13 05:28:46;;;;;;;11.43;2.63;;;15.60;65.60;;;;;;3611216;39;20411;-69
2021/06/13 05:31:13;;;;;;;7.93;3.13;;;15.70;65.70;;;;;;3611505;39;20018;-68
2021/06/13 05:33:39;;;;;;;9.20;3.00;;;15.70;65.90;;;;;;3614687;39;20066;-67
2021/06/13 05:36:04;;;;;;;8.80;2.60;;;15.70;65.60;;;;;;3610953;39;20030;-69
2021/06/13 05:38:30;;;;;;;11.30;2.88;;;15.80;65.60;;;;;;3616945;39;20027;-69
2021/06/13 05:40:56;;;;;;;6.20;2.88;;;15.80;65.80;;;;;;3614843;39;20022;-71
2021/06/13 05:43:22;;;;;;;9.50;3.25;;;15.90;65.40;;;;;;3614662;39;20417;-71
2021/06/13 05:45:48;;;;;;;11.35;4.45;;;15.90;65.00;;;;;;3611651;39;20043;-71
2021/06/13 05:48:13;;;;;;;12.63;4.00;;;16.00;65.30;;;;;;3611413;39;20523;-71
2021/06/13 05:50:40;;;;;;;8.55;3.33;;;16.00;65.00;;;;;;3614039;39;20027;-70
2021/06/13 05:53:07;;;;;;;11.88;3.15;;;16.00;65.00;;;;;;3613131;39;20035;-71
2021/06/13 05:55:33;;;;;;;8.88;3.15;;;16.10;64.20;;;;;;3611542;39;20108;-71
2021/06/13 05:57:59;;;;;;;9.20;3.03;;;16.10;64.50;;;;;;3614114;39;20029;-72
2021/06/13 06:00:31;;;;;;;8.57;3.17;;;16.20;64.60;;;;;;3615894;39;20039;-71
2021/06/13 06:02:57;;;;;;;10.48;3.00;;;16.30;64.60;;;;;;3617972;39;20034;-71
2021/06/13 06:05:23;;;;;;;8.70;2.95;;;16.40;64.40;;;;;;3618952;39;20412;-72
2021/06/13 06:07:50;;;;;;;9.20;3.15;;;16.40;64.30;;;;;;3615360;39;20034;-71
2021/06/13 06:10:17;;;;;;;6.88;3.20;;;16.50;63.50;;;;;;3618107;39;20031;-71
2021/06/13 06:12:43;;;;;;;9.55;2.72;;;16.60;63.60;;;;;;3613586;39;20026;-71
2021/06/13 06:15:12;;;;;;;9.77;2.95;;;16.60;63.40;;;;;;3613637;39;20026;-71
2021/06/13 06:17:38;;;;;;;11.93;3.78;;;16.70;62.60;;;;;;3614485;39;20071;-73
2021/06/13 06:20:04;;;;;;;20.42;3.67;;;16.70;63.00;;;;;;3616118;39;20529;-71
2021/06/13 06:22:30;;;;;;;9.10;2.30;;;16.70;62.60;;;;;;3618520;39;20026;-72
2021/06/13 06:24:56;;;;;;;6.53;2.80;;;16.70;62.40;;;;;;3615838;39;20031;-72
2021/06/13 06:27:22;;;;;;;7.85;2.83;;;16.80;62.30;;;;;;3615202;39;20050;-72
2021/06/13 06:29:48;;;;;;;9.00;2.80;;;16.80;61.20;;;;;;3619346;39;20128;-72
2021/06/13 06:32:14;;;;;;;7.32;2.22;;;16.80;61.30;;;;;;3618820;39;20798;-72
2021/06/13 06:34:40;;;;;;;10.90;2.70;;;16.80;61.00;;;;;;3615162;39;20042;-71
2021/06/13 06:37:06;;;;;;;7.18;2.60;;;16.90;60.60;;;;;;3611104;39;20329;-72
2021/06/13 06:39:32;;;;;;;6.60;2.78;;;17.00;59.80;;;;;;3613232;39;20026;-71
2021/06/13 06:41:58;;;;;;;8.18;2.83;;;17.10;60.10;;;;;;3614739;39;20500;-67
2021/06/13 06:44:24;;;;;;;7.93;2.30;;;17.20;59.80;;;;;;3613906;39;20097;-66
2021/06/13 06:46:50;;;;;;;13.43;2.90;;;17.30;59.10;;;;;;3614818;39;20485;-66
2021/06/13 06:49:16;;;;;;;7.13;2.58;;;17.40;58.90;;;;;;3617534;39;20063;-73
2021/06/13 06:51:42;;;;;;;5.60;2.17;;;17.40;58.70;;;;;;3619239;39;20030;-74
2021/06/13 06:54:08;;;;;;;6.95;2.63;;;17.40;58.30;;;;;;3614946;39;20030;-74
2021/06/13 06:56:33;;;;;;;6.90;2.63;;;17.40;58.40;;;;;;3619061;39;20447;-73
2021/06/13 06:58:59;;;;;;;5.30;2.30;;;17.30;58.60;;;;;;3615054;39;20127;-72
2021/06/13 07:01:25;;;;;;;6.65;2.22;;;17.30;59.00;;;;;;3613467;39;20605;-74
2021/06/13 07:03:51;;;;;;;9.60;2.88;;;17.30;58.30;;;;;;3620101;39;20015;-74
2021/06/13 07:06:17;;;;;;;5.45;2.50;;;17.30;58.00;;;;;;3617369;39;20055;-73
2021/06/13 07:08:43;;;;;;;7.60;2.38;;;17.30;58.20;;;;;;3616321;39;20347;-75
2021/06/13 07:11:09;;;;;;;5.95;2.58;;;17.40;58.30;;;;;;3615823;39;20034;-73
2021/06/13 07:13:34;;;;;;;6.43;2.22;;;17.40;58.30;;;;;;3615168;39;20026;-73
2021/06/13 07:16:00;;;;;;;4.82;1.92;;;17.40;57.90;;;;;;3617557;39;20038;-65
2021/06/13 07:18:27;;;;;;;7.55;2.20;;;17.40;57.70;;;;;;3615258;39;20027;-65
2021/06/13 07:20:53;;;;;;;5.22;2.15;;;17.40;57.70;;;;;;3620272;39;20457;-66
2021/06/13 07:23:19;;;;;;;4.88;2.28;;;17.50;57.60;;;;;;3614265;39;20324;-74
2021/06/13 07:25:46;;;;;;;8.82;2.65;;;17.50;57.50;;;;;;3615527;39;20027;-74
2021/06/13 07:28:13;;;;;;;7.97;2.53;;;17.50;57.10;;;;;;3615114;39;20030;-74
2021/06/13 07:30:40;;;;;;;7.43;1.70;;;17.50;57.40;;;;;;3612651;39;20528;-74
2021/06/13 07:33:06;;;;;;;6.13;2.28;;;17.50;56.80;;;;;;3615974;39;20663;-74
2021/06/13 07:35:32;;;;;;;5.90;2.03;;;17.50;57.10;;;;;;3612758;39;20038;-74
2021/06/13 07:38:00;;;;;;;8.02;2.50;;;17.60;57.90;;;;;;3612881;39;20031;-74
2021/06/13 07:40:27;;;;;;;14.85;2.83;;;17.60;56.90;;;;;;3615778;39;20035;-75
2021/06/13 07:42:53;;;;;;;7.15;2.25;;;17.70;56.70;;;;;;3615255;39;20035;-74
2021/06/13 07:45:18;;;;;;;5.95;2.15;;;17.60;56.50;;;;;;3617267;39;20412;-75
2021/06/13 07:47:44;;;;;;;8.30;2.40;;;17.60;57.00;;;;;;3613631;39;20828;-74
2021/06/13 07:50:12;;;;;;;6.78;2.33;;;17.60;56.80;;;;;;3616179;39;20034;-73
2021/06/13 07:52:38;;;;;;;11.18;2.55;;;17.70;56.80;;;;;;3612745;39;20027;-73
2021/06/13 07:55:06;;;;;;;11.75;2.58;;;17.80;56.90;;;;;;3613477;39;20108;-74
2021/06/13 07:57:32;;;;;;;10.65;2.83;;;17.80;56.80;;;;;;3614991;39;20039;-74
2021/06/13 07:59:57;;;;;;;10.18;2.50;;;17.90;56.20;;;;;;3615094;39;20039;-73
2021/06/13 08:02:23;;;;;;;8.45;2.47;;;18.00;56.30;;;;;;3611502;39;20035;-73
2021/06/13 08:04:54;;;;;;;10.80;2.90;;;18.00;56.20;;;;;;3613380;39;20042;-73
2021/06/13 08:07:20;;;;;;;10.25;2.63;;;18.10;56.00;;;;;;3613131;39;20680;-73
2021/06/13 08:09:45;;;;;;;7.35;2.10;;;18.20;55.80;;;;;;3616236;39;20037;-74
2021/06/13 08:12:11;;;;;;;9.93;2.60;;;18.20;56.10;;;;;;3610910;39;20019;-73
2021/06/13 08:14:38;;;;;;;7.57;2.83;;;18.20;55.40;;;;;;3615091;39;20027;-73
2021/06/13 08:17:04;;;;;;;9.73;2.53;;;18.30;55.40;;;;;;3615321;39;20824;-73
2021/06/13 08:19:29;;;;;;;6.70;2.33;;;18.30;55.30;;;;;;3611228;39;20031;-73
2021/06/13 08:21:55;;;;;;;10.07;3.15;;;18.40;55.30;;;;;;3614482;39;20037;-73
2021/06/13 08:24:21;;;;;;;8.27;2.80;;;18.40;54.50;;;;;;3615597;39;20786;-73
2021/06/13 08:26:47;;;;;;;11.05;4.30;;;18.40;55.00;;;;;;3614355;39;20043;-74
2021/06/13 08:29:12;;;;;;;9.80;2.83;;;18.40;55.70;;;;;;3613229;39;20416;-73
2021/06/13 08:31:38;;;;;;;7.55;2.50;;;18.40;55.80;;;;;;3617221;39;20308;-73
2021/06/13 08:34:04;;;;;;;4.80;2.80;;;18.40;55.90;;;;;;3616302;39;20045;-71
2021/06/13 08:36:30;;;;;;;13.02;2.70;;;18.40;56.70;;;;;;3619448;39;20019;-71
2021/06/13 08:38:56;;;;;;;10.95;2.92;;;18.50;56.80;;;;;;3616680;39;20050;-71
2021/06/13 08:41:24;;;;;;;8.85;2.70;;;18.60;56.50;;;;;;3611646;39;20232;-71
2021/06/13 08:43:50;;;;;;;10.30;3.03;;;18.60;56.00;;;;;;3611343;39;20338;-71
2021/06/13 08:46:16;;;;;;;12.95;2.80;;;18.70;56.20;;;;;;3616669;39;20038;-75
2021/06/13 08:48:45;;;;;;;11.45;2.70;;;18.80;55.80;;;;;;3614444;39;20038;-68
2021/06/13 08:51:12;;;;;;;4.85;2.40;;;18.90;54.80;;;;;;3613670;39;20116;-68
2021/06/13 08:53:43;;;;;;;7.82;2.60;;;18.80;55.30;;;;;;3613303;39;20041;-72
2021/06/13 08:56:10;;;;;;;6.13;2.28;;;18.80;55.00;;;;;;3614970;39;20115;-72
2021/06/13 08:58:36;;;;;;;6.65;2.30;;;18.80;54.50;;;;;;3614066;39;20392;-67
2021/06/13 09:01:03;;;;;;;6.28;2.40;;;18.80;55.20;;;;;;3613598;39;20042;-70
2021/06/13 09:03:29;;;;;;;8.05;2.45;;;18.70;55.20;;;;;;3614139;39;20035;-67
2021/06/13 09:05:55;;;;;;;7.45;2.50;;;18.60;55.50;;;;;;3615030;39;20039;-67
2021/06/13 09:08:20;;;;;;;5.97;2.08;;;18.60;55.70;;;;;;3617958;39;20096;-67
2021/06/13 09:10:47;;;;;;;6.45;2.38;;;18.60;55.80;;;;;;3615132;39;20031;-67
2021/06/13 09:13:18;;;;;;;8.90;3.03;;;18.50;56.00;;;;;;3612800;39;20023;-66
2021/06/13 09:15:56;;;;;;;6.00;2.42;;;18.50;56.00;;;;;;3612454;39;20043;-69
2021/06/13 09:18:35;;;;;;;9.45;3.00;;;18.30;56.00;;;;;;3615672;39;20430;-70
2021/06/13 09:21:05;;;;;;;15.10;2.50;;;18.20;57.00;;;;;;3616483;39;20792;-70
2021/06/13 09:23:34;;;;;;;7.40;2.92;;;18.10;57.70;;;;;;3614921;39;20124;-69
2021/06/13 09:26:05;;;;;;;9.23;3.45;;;18.10;57.90;;;;;;3613035;39;20054;-69
2021/06/13 09:28:33;;;;;;;9.43;2.88;;;18.20;57.40;;;;;;3611215;39;20042;-69
2021/06/13 09:31:00;;;;;;;6.88;3.08;;;18.20;57.60;;;;;;3613966;39;20039;-69
2021/06/13 09:33:34;;;;;;;10.07;3.20;;;18.50;57.80;;;;;;3617245;39;20041;-68
2021/06/13 09:36:02;;;;;;;7.28;3.13;;;18.60;56.90;;;;;;3616843;39;20039;-68
2021/06/13 09:38:37;;;;;;;7.63;3.20;;;18.80;56.60;;;;;;3615969;39;20062;-68
2021/06/13 09:41:07;;;;;;;8.45;3.20;;;19.00;56.30;;;;;;3614053;39;20039;-69
2021/06/13 09:43:46;;;;;;;7.60;2.97;;;19.30;56.20;;;;;;3612274;39;20031;-72
2021/06/13 09:46:17;;;;;;;9.07;3.38;;;19.50;55.00;;;;;;3618403;39;20046;-69
2021/06/13 09:48:47;;;;;;;9.82;3.15;;;19.70;54.80;;;;;;3615917;39;20039;-70
2021/06/13 09:51:34;;;;;;;6.55;2.70;;;19.70;53.50;;;;;;3618075;39;20037;-69
2021/06/13 09:54:08;;;;;;;6.57;3.40;;;19.60;53.70;;;;;;3611064;39;20035;-72
2021/06/13 09:56:36;;;;;;;9.10;3.25;;;19.50;54.10;;;;;;3614442;39;20028;-68
2021/06/13 09:59:10;;;;;;;9.68;3.30;;;19.40;55.30;;;;;;3613517;39;20025;-70
2021/06/13 10:01:42;;;;;;;10.98;3.50;;;19.20;54.70;;;;;;3615625;39;20111;-70
2021/06/13 10:04:20;;;;;;;8.57;3.22;;;18.90;54.90;;;;;;3615981;39;20030;-70
2021/06/13 10:06:51;;;;;;;7.57;2.83;;;18.70;56.20;;;;;;3614936;39;20059;-69
2021/06/13 10:09:19;;;;;;;9.20;3.70;;;18.60;56.90;;;;;;3619789;39;20019;-69
2021/06/13 10:11:47;;;;;;;9.07;3.20;;;18.60;56.90;;;;;;3615828;39;20019;-69
2021/06/13 10:14:17;;;;;;;7.38;2.90;;;18.60;56.70;;;;;;3616334;39;20092;-71
2021/06/13 10:16:55;;;;;;;9.68;3.38;;;18.60;56.70;;;;;;3614891;39;20035;-73
2021/06/13 10:19:21;;;;;;;12.50;3.70;;;18.60;56.90;;;;;;3619856;39;20026;-71
2021/06/13 10:22:01;;;;;;;8.80;3.00;;;18.60;56.50;;;;;;3614360;39;20031;-74
2021/06/13 10:24:33;;;;;;;8.05;3.00;;;18.50;56.70;;;;;;3613168;39;20797;-70
2021/06/13 10:27:08;;;;;;;8.93;3.05;;;18.50;57.20;;;;;;3612628;39;20035;-70
2021/06/13 10:29:36;;;;;;;7.88;3.03;;;18.40;58.20;;;;;;3616840;39;20047;-74
2021/06/13 10:32:05;;;;;;;11.30;3.50;;;18.30;58.90;;;;;;3614663;39;20030;-66
2021/06/13 10:34:31;;;;;;;8.02;3.60;;;18.30;59.30;;;;;;3615205;39;20035;-71
2021/06/13 10:37:02;;;;;;;7.25;3.10;;;18.60;58.70;;;;;;3617386;39;20086;-71
2021/06/13 10:39:30;;;;;;;11.77;3.20;;;18.80;57.90;;;;;;3616868;39;20022;-70
2021/06/13 10:41:56;;;;;;;8.45;3.08;;;19.10;56.50;;;;;;3616124;39;20031;-71
2021/06/13 10:44:25;;;;;;;13.35;3.50;;;19.50;56.50;;;;;;3611941;39;20039;-71
2021/06/13 10:46:54;;;;;;;11.35;3.88;;;19.80;55.60;;;;;;3616511;39;20087;-70
2021/06/13 10:49:31;;;;;;;8.77;3.20;;;20.10;53.40;;;;;;3615276;39;20027;-67
2021/06/13 10:52:03;;;;;;;18.27;4.28;;;20.20;51.50;;;;;;3610822;39;20075;-70
2021/06/13 10:54:32;;;;;;;7.50;3.00;;;20.30;52.60;;;;;;3611671;39;20037;-69
2021/06/13 10:57:03;;;;;;;8.65;3.60;;;20.70;51.70;;;;;;3613376;39;20023;-68
2021/06/13 10:59:37;;;;;;;8.35;3.25;;;20.80;50.60;;;;;;3612450;39;20027;-72
2021/06/13 11:02:11;;;;;;;8.43;3.15;;;20.70;50.60;;;;;;3616448;39;20440;-69
2021/06/13 11:04:56;;;;;;;6.43;3.38;;;20.50;50.80;;;;;;3615952;39;20046;-73
2021/06/13 11:07:28;;;;;;;8.13;4.07;;;20.20;50.70;;;;;;3613939;39;20442;-69
2021/06/13 11:10:05;;;;;;;12.77;4.85;;;19.90;50.70;;;;;;3612283;39;20402;-69
2021/06/13 11:12:56;;;;;;;8.05;3.53;;;19.80;50.70;;;;;;3616071;39;20031;-69
2021/06/13 11:15:31;;;;;;;6.78;3.00;;;19.50;51.50;;;;;;3614896;39;20041;-68
2021/06/13 11:18:01;;;;;;;9.57;3.88;;;19.40;52.30;;;;;;3615274;39;20038;-69
2021/06/13 11:22:57;;;;;;;7.55;3.30;;;19.30;52.70;;;;;;3613745;39;20039;-68
2021/06/13 11:25:29;;;;;;;10.15;3.67;;;19.40;52.80;;;;;;3608626;39;20031;-70
2021/06/13 11:28:18;;;;;;;9.27;3.10;;;19.60;52.60;;;;;;3610211;39;20031;-69
2021/06/13 11:30:51;;;;;;;6.05;2.85;;;19.70;51.40;;;;;;3613967;39;20035;-71
2021/06/13 11:33:35;;;;;;;9.23;3.30;;;19.90;51.10;;;;;;3618471;39;20023;-70
2021/06/13 11:36:06;;;;;;;9.32;3.22;;;20.20;51.00;;;;;;3612246;39;20027;-71
2021/06/13 11:38:33;;;;;;;8.13;2.92;;;20.40;51.20;;;;;;3615493;39;20416;-67
2021/06/13 11:41:04;;;;;;;6.28;3.05;;;20.60;50.30;;;;;;3613426;39;20106;-70
2021/06/13 11:43:41;;;;;;;9.45;3.47;;;20.70;50.10;;;;;;3612787;39;20053;-70
2021/06/13 11:46:07;;;;;;;5.40;3.15;;;20.80;50.00;;;;;;3617795;39;20039;-70
2021/06/13 11:48:35;;;;;;;7.57;3.00;;;20.70;48.70;;;;;;3615801;39;20050;-69
2021/06/13 11:51:03;;;;;;;10.98;3.08;;;20.60;49.20;;;;;;3619495;39;20035;-69
2021/06/13 11:53:52;;;;;;;6.07;2.92;;;20.50;49.20;;;;;;3613447;39;20030;-66
2021/06/13 11:56:33;;;;;;;7.88;3.38;;;20.50;48.40;;;;;;3600895;39;20062;-70
2021/06/13 11:59:17;;;;;;;8.13;2.92;;;20.50;47.90;;;;;;3609142;39;20112;-69
2021/06/13 12:01:51;;;;;;;10.98;3.40;;;20.70;48.20;;;;;;3617706;39;20424;-68
2021/06/13 12:04:17;;;;;;;20.10;4.20;;;20.90;46.80;;;;;;3614694;39;20030;-65
2021/06/13 12:06:43;;;;;;;12.05;3.45;;;21.00;48.90;;;;;;3612939;39;20043;-65
2021/06/13 12:09:13;;;;;;;17.45;3.67;;;21.00;46.90;;;;;;3611787;39;20016;-65
2021/06/13 12:11:54;;;;;;;7.63;3.03;;;21.10;46.60;;;;;;3613896;39;20039;-65
2021/06/13 12:14:21;;;;;;;11.57;2.28;;;21.10;45.70;;;;;;3618504;39;20031;-65
2021/06/13 12:16:47;;;;;;;6.40;2.50;;;21.20;46.00;;;;;;3617150;39;20034;-65
2021/06/13 12:19:14;;;;;;;7.13;2.55;;;21.30;44.80;;;;;;3615591;39;20095;-65
2021/06/13 12:21:39;;;;;;;7.55;2.55;;;21.30;44.90;;;;;;3615680;39;20034;-65
2021/06/13 12:24:15;;;;;;;5.90;2.20;;;21.40;45.80;;;;;;3619427;39;20412;-63
2021/06/13 12:29:26;;;;;;;5.40;2.50;;;21.70;45.10;;;;;;3616822;39;20035;-64
2021/06/13 12:31:55;;;;;;;8.30;2.50;;;21.70;45.00;;;;;;3614454;39;20027;-65
2021/06/13 12:34:22;;;;;;;3.95;2.20;;;21.60;44.00;;;;;;3612237;39;20023;-65
2021/06/13 12:36:53;;;;;;;4.78;2.55;;;21.80;44.00;;;;;;3614639;39;20027;-65
2021/06/13 12:39:30;;;;;;;5.45;2.33;;;21.90;43.70;;;;;;3607972;39;20683;-65
2021/06/13 12:42:09;;;;;;;6.10;2.90;;;22.00;43.90;;;;;;3616096;39;20038;-65
2021/06/13 12:44:37;;;;;;;9.52;4.40;;;22.10;43.30;;;;;;3618167;39;20035;-64
2021/06/13 12:47:07;;;;;;;7.03;2.85;;;22.30;43.90;;;;;;3615483;39;20023;-65
2021/06/13 12:49:45;;;;;;;4.53;2.60;;;22.30;43.90;;;;;;3612059;39;20041;-65
2021/06/13 12:52:16;;;;;;;6.00;3.13;;;22.40;43.20;;;;;;3612556;39;20102;-65
2021/06/13 12:54:44;;;;;;;8.18;3.60;;;22.60;43.20;;;;;;3613621;39;20019;-65
2021/06/13 12:57:11;;;;;;;10.88;5.07;;;22.80;41.50;;;;;;3611704;39;20102;-65
2021/06/13 12:59:37;;;;;;;5.05;3.65;;;22.80;42.10;;;;;;3609559;39;20037;-65
2021/06/13 13:02:08;;;;;;;8.50;4.28;;;22.70;42.70;;;;;;3614070;39;20030;-65